createdAt,value
2018-09-26T00:00:46.872Z,99.99
2018-09-26T00:01:46.862Z,99.99
2018-09-26T00:02:46.831Z,99.99
2018-09-26T00:03:46.826Z,99.99
2018-09-26T00:04:46.805Z,99.99
2018-09-26T00:05:46.783Z,99.99
2018-09-26T00:06:46.745Z,99.99
2018-09-26T00:07:46.737Z,99.99
2018-09-26T00:08:46.696Z,99.99
2018-09-26T00:09:46.693Z,99.99
2018-09-26T00:10:46.670Z,99.99
2018-09-26T00:11:46.636Z,99.99
2018-09-26T00:12:46.625Z,99.99
2018-09-26T00:13:46.608Z,99.99
2018-09-26T00:14:46.567Z,99.99
2018-09-26T00:15:46.561Z,99.99
2018-09-26T00:16:46.545Z,99.99
2018-09-26T00:17:46.520Z,99.99
2018-09-26T00:18:46.492Z,99.99
2018-09-26T00:19:46.469Z,99.99
2018-09-26T00:20:46.459Z,99.99
2018-09-26T00:21:46.438Z,99.99
2018-09-26T00:22:46.401Z,99.99
2018-09-26T00:23:46.384Z,99.99
2018-09-26T00:24:46.369Z,99.99
2018-09-26T00:25:46.337Z,99.99
2018-09-26T00:26:46.329Z,99.99
2018-09-26T00:27:46.313Z,99.99
2018-09-26T00:28:46.284Z,99.99
2018-09-26T00:29:46.256Z,99.99
2018-09-26T00:30:46.244Z,99.99
2018-09-26T00:31:46.216Z,99.99
2018-09-26T00:32:46.186Z,99.99
2018-09-26T00:33:46.177Z,99.99
2018-09-26T00:34:46.156Z,99.99
2018-09-26T00:35:46.161Z,99.99
2018-09-26T00:36:46.105Z,99.99
2018-09-26T00:37:46.095Z,99.99
2018-09-26T00:38:46.070Z,99.99
2018-09-26T00:39:46.039Z,99.99
2018-09-26T00:40:46.034Z,99.99
2018-09-26T00:41:46.005Z,99.99
2018-09-26T00:42:45.993Z,99.99
2018-09-26T00:43:45.952Z,99.99
2018-09-26T00:44:45.940Z,99.99
2018-09-26T00:45:45.926Z,99.99
2018-09-26T00:46:45.907Z,99.99
2018-09-26T00:47:45.881Z,99.99
2018-09-26T00:48:45.843Z,99.99
2018-09-26T00:49:45.837Z,99.99
2018-09-26T00:50:45.809Z,99.99
2018-09-26T00:51:45.779Z,99.99
2018-09-26T00:52:45.775Z,99.99
2018-09-26T00:53:45.756Z,99.99
2018-09-26T00:54:45.726Z,99.99
2018-09-26T00:55:45.769Z,99.99
2018-09-26T00:56:45.699Z,99.99
2018-09-26T00:57:45.655Z,99.99
2018-09-26T00:58:45.644Z,99.99
2018-09-26T00:59:45.631Z,99.99
2018-09-26T01:00:45.591Z,99.99
2018-09-26T01:01:45.571Z,99.99
2018-09-26T01:02:45.553Z,99.99
2018-09-26T01:03:45.542Z,99.99
2018-09-26T01:04:45.507Z,99.99
2018-09-26T01:05:45.491Z,99.99
2018-09-26T01:06:45.471Z,99.99
2018-09-26T01:07:45.441Z,99.99
2018-09-26T01:08:45.435Z,99.99
2018-09-26T01:09:45.395Z,99.99
2018-09-26T01:10:45.382Z,99.99
2018-09-26T01:11:45.368Z,99.99
2018-09-26T01:12:45.353Z,99.99
2018-09-26T01:13:45.323Z,99.99
2018-09-26T01:14:45.307Z,99.99
2018-09-26T01:15:45.280Z,99.99
2018-09-26T01:16:45.259Z,99.99
2018-09-26T01:17:45.229Z,99.99
2018-09-26T01:18:45.207Z,99.99
2018-09-26T01:19:45.188Z,99.99
2018-09-26T01:20:45.172Z,99.99
2018-09-26T01:21:45.146Z,99.99
2018-09-26T01:22:45.122Z,99.99
2018-09-26T01:23:45.117Z,99.99
2018-09-26T01:24:45.095Z,99.99
2018-09-26T01:25:45.070Z,99.99
2018-09-26T01:26:45.051Z,99.99
2018-09-26T01:27:45.016Z,99.99
2018-09-26T01:28:44.987Z,99.99
2018-09-26T01:29:44.969Z,99.99
2018-09-26T01:30:44.945Z,99.99
2018-09-26T01:31:44.925Z,99.99
2018-09-26T01:32:44.917Z,99.99
2018-09-26T01:33:44.885Z,99.99
2018-09-26T01:34:44.879Z,99.99
2018-09-26T01:35:44.849Z,99.99
2018-09-26T01:36:44.834Z,99.99
2018-09-26T01:37:44.797Z,99.99
2018-09-26T01:38:44.789Z,99.99
2018-09-26T01:39:44.773Z,99.99
2018-09-26T01:40:44.734Z,99.99
2018-09-26T01:41:44.728Z,99.99
2018-09-26T01:42:44.702Z,99.99
2018-09-26T01:43:44.697Z,99.99
2018-09-26T01:44:44.790Z,99.99
2018-09-26T01:45:44.640Z,99.99
2018-09-26T01:46:44.609Z,99.99
2018-09-26T01:47:44.586Z,99.99
2018-09-26T01:48:44.565Z,99.99
2018-09-26T01:49:44.543Z,99.99
2018-09-26T01:50:44.532Z,99.99
2018-09-26T01:51:44.622Z,99.99
2018-09-26T01:52:44.486Z,99.99
2018-09-26T01:53:44.466Z,99.99
2018-09-26T01:54:44.978Z,99.99
2018-09-26T01:55:44.425Z,99.99
2018-09-26T01:56:44.389Z,99.99
2018-09-26T01:57:44.386Z,99.99
2018-09-26T01:58:44.355Z,99.99
2018-09-26T01:59:44.333Z,99.99
2018-09-26T02:00:44.305Z,99.99
2018-09-26T02:01:44.286Z,99.99
2018-09-26T02:02:44.262Z,99.99
2018-09-26T02:03:44.240Z,99.99
2018-09-26T02:04:44.215Z,99.99
2018-09-26T02:05:44.211Z,99.99
2018-09-26T02:06:44.176Z,99.99
2018-09-26T02:07:44.163Z,99.99
2018-09-26T02:08:44.138Z,99.99
2018-09-26T02:09:44.109Z,99.99
2018-09-26T02:10:44.100Z,99.99
2018-09-26T02:11:44.079Z,99.99
2018-09-26T02:12:44.053Z,99.99
2018-09-26T02:13:44.035Z,99.99
2018-09-26T02:14:43.996Z,99.99
2018-09-26T02:15:43.977Z,99.99
2018-09-26T02:16:43.967Z,99.99
2018-09-26T02:17:43.947Z,99.99
2018-09-26T02:18:43.916Z,99.99
2018-09-26T02:19:43.894Z,99.99
2018-09-26T02:20:43.881Z,99.99
2018-09-26T02:21:43.880Z,99.99
2018-09-26T02:22:43.835Z,99.99
2018-09-26T02:23:43.855Z,99.99
2018-09-26T02:24:43.800Z,99.99
2018-09-26T02:25:43.773Z,99.99
2018-09-26T02:26:43.770Z,99.99
2018-09-26T02:27:43.723Z,99.99
2018-09-26T02:28:43.707Z,99.99
2018-09-26T02:29:43.677Z,99.99
2018-09-26T02:30:43.668Z,99.99
2018-09-26T02:31:43.648Z,99.99
2018-09-26T02:32:43.616Z,99.99
2018-09-26T02:33:43.604Z,99.99
2018-09-26T02:34:43.570Z,99.99
2018-09-26T02:35:43.561Z,99.99
2018-09-26T02:36:43.537Z,99.99
2018-09-26T02:37:43.512Z,99.99
2018-09-26T02:38:43.796Z,99.99
2018-09-26T02:39:43.465Z,99.99
2018-09-26T02:40:43.445Z,99.99
2018-09-26T02:41:43.425Z,99.99
2018-09-26T02:42:43.401Z,99.99
2018-09-26T02:43:43.376Z,99.99
2018-09-26T02:44:43.361Z,99.99
2018-09-26T02:45:43.348Z,99.99
2018-09-26T02:46:43.320Z,99.99
2018-09-26T02:47:43.291Z,99.99
2018-09-26T02:48:43.272Z,99.99
2018-09-26T02:49:43.251Z,99.99
2018-09-26T02:50:43.236Z,99.99
2018-09-26T02:51:43.220Z,99.99
2018-09-26T02:52:43.201Z,99.99
2018-09-26T02:53:43.177Z,99.99
2018-09-26T02:54:43.143Z,99.99
2018-09-26T02:55:43.159Z,99.99
2018-09-26T02:56:43.115Z,99.99
2018-09-26T02:57:43.089Z,99.99
2018-09-26T02:58:43.076Z,99.99
2018-09-26T02:59:43.048Z,99.99
2018-09-26T03:00:43.028Z,99.99
2018-09-26T03:01:42.993Z,99.99
2018-09-26T03:02:42.980Z,99.99
2018-09-26T03:03:42.951Z,99.99
2018-09-26T03:04:42.939Z,99.99
2018-09-26T03:05:42.924Z,99.99
2018-09-26T03:06:42.891Z,99.99
2018-09-26T03:07:42.864Z,99.99
2018-09-26T03:08:42.848Z,99.99
2018-09-26T03:09:42.829Z,99.99
2018-09-26T03:10:42.819Z,99.99
2018-09-26T03:11:42.785Z,99.99
2018-09-26T03:12:42.758Z,99.99
2018-09-26T03:13:42.754Z,99.99
2018-09-26T03:14:42.724Z,99.99
2018-09-26T03:15:42.691Z,99.99
2018-09-26T03:16:42.661Z,99.99
2018-09-26T03:17:42.755Z,99.99
2018-09-26T03:18:42.642Z,99.99
2018-09-26T03:19:42.618Z,99.99
2018-09-26T03:20:42.596Z,99.99
2018-09-26T03:21:42.571Z,99.99
2018-09-26T03:22:42.543Z,99.99
2018-09-26T03:23:42.527Z,99.99
2018-09-26T03:24:42.505Z,99.99
2018-09-26T03:25:42.471Z,99.99
2018-09-26T03:26:42.467Z,99.99
2018-09-26T03:27:42.425Z,99.99
2018-09-26T03:28:42.422Z,99.99
2018-09-26T03:29:42.389Z,99.99
2018-09-26T03:30:42.415Z,99.99
2018-09-26T03:31:42.362Z,99.99
2018-09-26T03:32:42.333Z,99.99
2018-09-26T03:33:42.369Z,99.99
2018-09-26T03:34:42.291Z,99.99
2018-09-26T03:35:42.269Z,99.99
2018-09-26T03:36:42.238Z,99.99
2018-09-26T03:37:42.230Z,99.99
2018-09-26T03:38:42.207Z,99.99
2018-09-26T03:39:42.185Z,99.99
2018-09-26T03:40:42.155Z,99.99
2018-09-26T03:41:42.146Z,99.99
2018-09-26T03:42:42.114Z,99.99
2018-09-26T03:43:42.108Z,99.99
2018-09-26T03:44:42.088Z,99.99
2018-09-26T03:45:42.048Z,99.99
2018-09-26T03:46:42.041Z,99.99
2018-09-26T03:47:42.002Z,99.99
2018-09-26T03:48:41.994Z,99.99
2018-09-26T03:49:41.975Z,99.99
2018-09-26T03:50:41.941Z,99.99
2018-09-26T03:51:41.917Z,99.99
2018-09-26T03:52:41.910Z,99.99
2018-09-26T03:53:41.878Z,99.99
2018-09-26T03:54:41.856Z,99.99
2018-09-26T03:55:41.848Z,99.99
2018-09-26T03:56:41.810Z,99.99
2018-09-26T03:57:41.792Z,99.99
2018-09-26T03:58:41.779Z,99.99
2018-09-26T03:59:41.764Z,99.99
2018-09-26T04:00:41.744Z,99.99
2018-09-26T04:01:41.714Z,99.99
2018-09-26T04:02:41.696Z,99.99
2018-09-26T04:03:41.659Z,99.99
2018-09-26T04:04:41.634Z,99.99
2018-09-26T04:05:41.624Z,99.99
2018-09-26T04:06:41.603Z,99.99
2018-09-26T04:07:41.574Z,99.99
2018-09-26T04:08:41.551Z,99.99
2018-09-26T04:09:41.545Z,99.99
2018-09-26T04:10:41.509Z,99.99
2018-09-26T04:11:41.504Z,99.99
2018-09-26T04:12:41.643Z,99.99
2018-09-26T04:13:41.453Z,99.99
2018-09-26T04:14:41.436Z,99.99
2018-09-26T04:15:41.481Z,99.99
2018-09-26T04:16:41.403Z,99.99
2018-09-26T04:17:41.370Z,99.99
2018-09-26T04:18:41.354Z,99.99
2018-09-26T04:19:41.325Z,99.99
2018-09-26T04:20:41.315Z,99.99
2018-09-26T04:21:41.283Z,99.99
2018-09-26T04:22:41.266Z,99.99
2018-09-26T04:23:41.237Z,99.99
2018-09-26T04:24:41.220Z,99.99
2018-09-26T04:25:41.187Z,99.99
2018-09-26T04:26:41.308Z,99.99
2018-09-26T04:27:41.231Z,99.99
2018-09-26T04:28:41.129Z,99.99
2018-09-26T04:29:41.104Z,99.99
2018-09-26T04:30:41.080Z,99.99
2018-09-26T04:31:41.073Z,99.99
2018-09-26T04:32:41.195Z,99.99
2018-09-26T04:33:41.127Z,99.99
2018-09-26T04:34:41.007Z,99.99
2018-09-26T04:35:40.968Z,99.99
2018-09-26T04:36:40.952Z,99.99
2018-09-26T04:37:40.943Z,99.99
2018-09-26T04:38:41.081Z,99.99
2018-09-26T04:39:40.895Z,99.99
2018-09-26T04:40:40.863Z,99.99
2018-09-26T04:41:40.849Z,99.99
2018-09-26T04:42:40.820Z,99.99
2018-09-26T04:43:40.809Z,99.99
2018-09-26T04:44:40.791Z,99.99
2018-09-26T04:45:40.766Z,99.99
2018-09-26T04:46:40.734Z,99.99
2018-09-26T04:47:40.717Z,99.99
2018-09-26T04:48:40.695Z,99.99
2018-09-26T04:49:40.681Z,99.99
2018-09-26T04:50:40.715Z,99.99
2018-09-26T04:51:40.638Z,99.99
2018-09-26T04:52:40.616Z,99.99
2018-09-26T04:53:40.602Z,99.99
2018-09-26T04:54:40.567Z,99.99
2018-09-26T04:55:40.557Z,99.99
2018-09-26T04:56:40.515Z,99.99
2018-09-26T04:57:40.539Z,99.99
2018-09-26T04:58:40.492Z,99.99
2018-09-26T04:59:40.464Z,99.99
2018-09-26T05:00:40.430Z,99.99
2018-09-26T05:01:40.426Z,99.99
2018-09-26T05:02:40.405Z,99.99
2018-09-26T05:03:40.370Z,99.99
2018-09-26T05:04:40.360Z,99.99
2018-09-26T05:05:40.328Z,99.99
2018-09-26T05:06:40.317Z,99.99
2018-09-26T05:07:40.297Z,99.99
2018-09-26T05:08:40.264Z,99.99
2018-09-26T05:09:40.253Z,99.99
2018-09-26T05:10:40.214Z,99.99
2018-09-26T05:11:40.206Z,99.99
2018-09-26T05:12:40.193Z,99.99
2018-09-26T05:13:40.165Z,99.99
2018-09-26T05:14:40.187Z,99.99
2018-09-26T05:15:40.107Z,99.99
2018-09-26T05:16:40.101Z,99.99
2018-09-26T05:17:40.078Z,99.99
2018-09-26T05:18:40.061Z,99.99
2018-09-26T05:19:40.035Z,99.99
2018-09-26T05:20:40.007Z,99.99
2018-09-26T05:21:39.997Z,99.99
2018-09-26T05:22:40.029Z,99.99
2018-09-26T05:23:39.944Z,99.99
2018-09-26T05:24:39.916Z,99.99
2018-09-26T05:25:39.911Z,99.99
2018-09-26T05:26:39.879Z,99.99
2018-09-26T05:27:39.864Z,99.99
2018-09-26T05:28:39.847Z,99.99
2018-09-26T05:29:39.819Z,99.99
2018-09-26T05:30:39.790Z,99.99
2018-09-26T05:31:39.779Z,99.99
2018-09-26T05:32:39.746Z,99.99
2018-09-26T05:33:39.734Z,99.99
2018-09-26T05:34:39.705Z,99.99
2018-09-26T05:35:39.679Z,99.99
2018-09-26T05:36:39.673Z,99.99
2018-09-26T05:37:39.649Z,99.99
2018-09-26T05:38:39.631Z,99.99
2018-09-26T05:39:39.607Z,99.99
2018-09-26T05:40:39.580Z,99.99
2018-09-26T05:41:39.580Z,99.99
2018-09-26T05:42:39.541Z,99.99
2018-09-26T05:43:39.517Z,99.99
2018-09-26T05:44:39.499Z,99.99
2018-09-26T05:45:39.469Z,99.99
2018-09-26T05:46:39.459Z,99.99
2018-09-26T05:47:39.440Z,99.99
2018-09-26T05:48:39.407Z,99.99
2018-09-26T05:49:39.391Z,99.99
2018-09-26T05:50:39.371Z,99.99
2018-09-26T05:51:39.343Z,99.99
2018-09-26T05:52:39.319Z,99.99
2018-09-26T05:53:39.301Z,99.99
2018-09-26T05:54:39.286Z,99.99
2018-09-26T05:55:39.272Z,99.99
2018-09-26T05:56:39.249Z,99.99
2018-09-26T05:57:39.221Z,99.99
2018-09-26T05:58:39.190Z,99.99
2018-09-26T05:59:39.190Z,99.99
2018-09-26T06:00:39.141Z,99.99
2018-09-26T06:01:39.141Z,99.99
2018-09-26T06:02:39.118Z,99.99
2018-09-26T06:03:39.093Z,99.99
2018-09-26T06:04:39.058Z,99.99
2018-09-26T06:05:39.054Z,99.99
2018-09-26T06:06:39.036Z,99.99
2018-09-26T06:07:39.006Z,99.99
2018-09-26T06:08:38.990Z,99.99
2018-09-26T06:09:38.965Z,99.99
2018-09-26T06:10:38.945Z,99.99
2018-09-26T06:11:38.930Z,99.99
2018-09-26T06:12:38.902Z,99.99
2018-09-26T06:13:38.878Z,99.99
2018-09-26T06:14:38.862Z,99.99
2018-09-26T06:15:38.830Z,99.99
2018-09-26T06:16:38.813Z,99.99
2018-09-26T06:17:38.792Z,99.99
2018-09-26T06:18:38.762Z,99.99
2018-09-26T06:19:38.790Z,99.99
2018-09-26T06:20:38.774Z,99.99
2018-09-26T06:21:38.758Z,99.99
2018-09-26T06:22:38.684Z,99.99
2018-09-26T06:23:38.656Z,99.99
2018-09-26T06:24:38.657Z,99.99
2018-09-26T06:25:38.629Z,99.99
2018-09-26T06:26:38.593Z,99.99
2018-09-26T06:27:38.574Z,99.99
2018-09-26T06:28:38.553Z,99.99
2018-09-26T06:29:38.526Z,99.99
2018-09-26T06:30:38.514Z,99.99
2018-09-26T06:31:38.483Z,99.99
2018-09-26T06:32:38.475Z,99.99
2018-09-26T06:33:38.457Z,99.99
2018-09-26T06:34:38.428Z,99.99
2018-09-26T06:35:38.396Z,99.99
2018-09-26T06:36:38.391Z,99.99
2018-09-26T06:37:38.358Z,99.99
2018-09-26T06:38:38.345Z,99.99
2018-09-26T06:39:38.323Z,99.99
2018-09-26T06:40:38.302Z,99.99
2018-09-26T06:41:38.279Z,99.99
2018-09-26T06:42:38.258Z,99.99
2018-09-26T06:43:38.242Z,99.99
2018-09-26T06:44:38.203Z,99.99
2018-09-26T06:45:38.199Z,99.99
2018-09-26T06:46:38.165Z,99.99
2018-09-26T06:47:38.246Z,99.99
2018-09-26T06:48:38.137Z,99.99
2018-09-26T06:49:38.102Z,99.99
2018-09-26T06:50:38.087Z,99.99
2018-09-26T06:51:38.065Z,99.99
2018-09-26T06:52:38.043Z,99.99
2018-09-26T06:53:38.017Z,99.99
2018-09-26T06:54:38.004Z,99.99
2018-09-26T06:55:37.971Z,99.99
2018-09-26T06:56:37.961Z,99.99
2018-09-26T06:57:37.937Z,99.99
2018-09-26T06:58:37.922Z,99.99
2018-09-26T06:59:37.886Z,99.99
2018-09-26T07:00:37.874Z,99.99
2018-09-26T07:01:37.847Z,99.99
2018-09-26T07:02:37.829Z,99.99
2018-09-26T07:03:37.809Z,99.99
2018-09-26T07:04:37.787Z,99.99
2018-09-26T07:05:37.776Z,99.99
2018-09-26T07:06:37.740Z,99.99
2018-09-26T07:07:37.714Z,99.99
2018-09-26T07:08:37.706Z,99.99
2018-09-26T07:09:37.679Z,99.99
2018-09-26T07:10:37.648Z,99.99
2018-09-26T07:11:37.636Z,99.99
2018-09-26T07:12:37.610Z,99.99
2018-09-26T07:13:37.589Z,99.99
2018-09-26T07:14:37.570Z,99.99
2018-09-26T07:15:37.544Z,99.99
2018-09-26T07:16:37.534Z,99.99
2018-09-26T07:17:37.512Z,99.99
2018-09-26T07:18:37.478Z,99.99
2018-09-26T07:19:37.466Z,99.99
2018-09-26T07:20:37.450Z,99.99
2018-09-26T07:21:37.409Z,99.99
2018-09-26T07:22:37.403Z,99.99
2018-09-26T07:23:37.368Z,99.99
2018-09-26T07:24:37.350Z,99.99
2018-09-26T07:25:37.340Z,99.99
2018-09-26T07:26:37.304Z,99.99
2018-09-26T07:27:37.282Z,99.99
2018-09-26T07:28:37.260Z,99.99
2018-09-26T07:29:37.261Z,99.99
2018-09-26T07:30:37.221Z,99.99
2018-09-26T07:31:37.240Z,99.99
2018-09-26T07:32:37.175Z,99.99
2018-09-26T07:33:37.166Z,99.99
2018-09-26T07:34:37.148Z,99.99
2018-09-26T07:35:37.123Z,99.99
2018-09-26T07:36:37.088Z,99.99
2018-09-26T07:37:37.079Z,99.99
2018-09-26T07:38:37.060Z,99.99
2018-09-26T07:39:37.029Z,99.99
2018-09-26T07:40:37.008Z,99.99
2018-09-26T07:41:36.980Z,99.99
2018-09-26T07:42:36.972Z,99.99
2018-09-26T07:43:36.945Z,99.99
2018-09-26T07:44:36.929Z,99.99
2018-09-26T07:45:37.016Z,99.99
2018-09-26T07:46:36.885Z,99.99
2018-09-26T07:47:36.856Z,99.99
2018-09-26T07:48:36.844Z,99.99
2018-09-26T07:49:36.821Z,99.99
2018-09-26T07:50:36.787Z,99.99
2018-09-26T07:51:36.767Z,99.99
2018-09-26T07:52:36.756Z,99.99
2018-09-26T07:53:36.721Z,99.99
2018-09-26T07:54:36.711Z,99.99
2018-09-26T07:55:36.692Z,99.99
2018-09-26T07:56:36.673Z,99.99
2018-09-26T07:57:36.637Z,99.99
2018-09-26T07:58:36.628Z,99.99
2018-09-26T07:59:36.597Z,99.99
2018-09-26T08:00:36.600Z,99.99
2018-09-26T08:01:36.551Z,99.99
2018-09-26T08:02:36.547Z,99.99
2018-09-26T08:03:36.504Z,99.99
2018-09-26T08:04:36.477Z,99.99
2018-09-26T08:05:36.463Z,99.99
2018-09-26T08:06:36.453Z,99.99
2018-09-26T08:07:36.434Z,99.99
2018-09-26T08:08:36.403Z,99.99
2018-09-26T08:09:36.388Z,99.99
2018-09-26T08:10:36.365Z,99.99
2018-09-26T08:11:36.382Z,99.99
2018-09-26T08:12:36.309Z,99.99
2018-09-26T08:13:36.299Z,99.99
2018-09-26T08:14:36.270Z,99.99
2018-09-26T08:15:36.241Z,99.99
2018-09-26T08:16:36.228Z,99.99
2018-09-26T08:17:36.211Z,99.99
2018-09-26T08:18:36.288Z,99.99
2018-09-26T08:19:36.167Z,99.99
2018-09-26T08:20:36.150Z,99.99
2018-09-26T08:21:36.118Z,99.99
2018-09-26T08:22:36.114Z,99.99
2018-09-26T08:23:36.081Z,99.99
2018-09-26T08:24:36.055Z,99.99
2018-09-26T08:25:36.030Z,99.99
2018-09-26T08:26:36.012Z,99.99
2018-09-26T08:27:36.005Z,99.99
2018-09-26T08:28:35.978Z,99.99
2018-09-26T08:29:35.967Z,99.99
2018-09-26T08:30:35.926Z,99.99
2018-09-26T08:31:35.907Z,99.99
2018-09-26T08:32:35.897Z,99.99
2018-09-26T08:33:35.865Z,99.99
2018-09-26T08:34:35.855Z,99.99
2018-09-26T08:35:35.820Z,99.99
2018-09-26T08:36:35.815Z,99.99
2018-09-26T08:37:35.786Z,99.99
2018-09-26T08:38:35.767Z,99.99
2018-09-26T08:39:35.745Z,99.99
2018-09-26T08:40:35.711Z,99.99
2018-09-26T08:41:35.692Z,99.99
2018-09-26T08:42:35.682Z,99.99
2018-09-26T08:43:35.756Z,99.99
2018-09-26T08:44:35.642Z,99.99
2018-09-26T08:45:35.606Z,99.99
2018-09-26T08:46:35.588Z,99.99
2018-09-26T08:47:35.572Z,99.99
2018-09-26T08:48:35.549Z,99.99
2018-09-26T08:49:35.517Z,99.99
2018-09-26T08:50:35.509Z,99.99
2018-09-26T08:51:35.485Z,99.99
2018-09-26T08:52:35.464Z,99.99
2018-09-26T08:53:35.447Z,99.99
2018-09-26T08:54:35.417Z,99.99
2018-09-26T08:55:35.391Z,99.99
2018-09-26T08:56:35.375Z,99.99
2018-09-26T08:57:35.349Z,99.99
2018-09-26T08:58:35.329Z,99.99
2018-09-26T08:59:35.305Z,99.99
2018-09-26T09:00:35.283Z,99.99
2018-09-26T09:01:35.269Z,99.99
2018-09-26T09:02:35.240Z,99.99
2018-09-26T09:03:35.225Z,99.99
2018-09-26T09:04:35.205Z,99.99
2018-09-26T09:05:35.173Z,99.99
2018-09-26T09:06:35.166Z,99.99
2018-09-26T09:07:35.135Z,99.99
2018-09-26T09:08:35.106Z,99.99
2018-09-26T09:09:35.095Z,99.99
2018-09-26T09:10:35.078Z,99.99
2018-09-26T09:11:35.113Z,99.99
2018-09-26T09:12:35.023Z,99.99
2018-09-26T09:13:35.003Z,99.99
2018-09-26T09:14:35.177Z,99.99
2018-09-26T09:15:34.955Z,99.99
2018-09-26T09:16:34.955Z,99.99
2018-09-26T09:17:34.908Z,99.99
2018-09-26T09:18:34.893Z,99.99
2018-09-26T09:19:34.870Z,99.99
2018-09-26T09:20:34.853Z,99.99
2018-09-26T09:21:34.840Z,99.99
2018-09-26T09:22:34.809Z,99.99
2018-09-26T09:23:34.786Z,99.99
2018-09-26T09:24:34.780Z,99.99
2018-09-26T09:25:34.753Z,99.99
2018-09-26T09:26:34.723Z,99.99
2018-09-26T09:27:34.762Z,99.99
2018-09-26T09:28:34.691Z,99.99
2018-09-26T09:29:34.658Z,99.99
2018-09-26T09:30:34.641Z,99.99
2018-09-26T09:31:34.609Z,99.99
2018-09-26T09:32:34.595Z,99.99
2018-09-26T09:33:34.565Z,99.99
2018-09-26T09:34:34.552Z,99.99
2018-09-26T09:35:34.530Z,99.99
2018-09-26T09:36:34.572Z,99.99
2018-09-26T09:37:34.498Z,99.99
2018-09-26T09:38:34.479Z,99.99
2018-09-26T09:39:34.460Z,99.99
2018-09-26T09:40:34.521Z,99.99
2018-09-26T09:41:34.401Z,99.99
2018-09-26T09:42:34.387Z,99.99
2018-09-26T09:43:34.354Z,99.99
2018-09-26T09:44:34.465Z,99.99
2018-09-26T09:45:34.316Z,99.99
2018-09-26T09:46:34.307Z,99.99
2018-09-26T09:47:34.270Z,99.99
2018-09-26T09:48:34.250Z,99.99
2018-09-26T09:49:34.237Z,99.99
2018-09-26T09:50:34.212Z,99.99
2018-09-26T09:51:34.211Z,99.99
2018-09-26T09:52:34.160Z,99.98
2018-09-26T09:53:34.142Z,99.98
2018-09-26T09:54:34.128Z,99.99
2018-09-26T09:55:34.097Z,99.99
2018-09-26T09:56:34.078Z,99.99
2018-09-26T09:57:34.065Z,99.99
2018-09-26T09:58:34.029Z,99.99
2018-09-26T09:59:34.034Z,99.99
2018-09-26T10:00:34.008Z,99.99
2018-09-26T10:01:33.969Z,99.99
2018-09-26T10:02:34.315Z,99.88
2018-09-26T10:03:33.927Z,99.99
2018-09-26T10:04:33.921Z,97.62
2018-09-26T10:05:33.886Z,96.41
2018-09-26T10:06:33.876Z,94.53
2018-09-26T10:07:33.856Z,93.66
2018-09-26T10:08:33.863Z,93.08
2018-09-26T10:09:33.802Z,91.78
2018-09-26T10:10:33.795Z,91.11
2018-09-26T10:11:33.763Z,89.85
2018-09-26T10:12:33.735Z,89.56
2018-09-26T10:13:33.717Z,89.75
2018-09-26T10:14:33.716Z,90.05
2018-09-26T10:15:33.683Z,89.07
2018-09-26T10:16:33.664Z,89.22
2018-09-26T10:17:33.644Z,88.93
2018-09-26T10:18:33.636Z,88.73
2018-09-26T10:19:33.600Z,88.15
2018-09-26T10:20:33.582Z,88.35
2018-09-26T10:21:33.577Z,88.69
2018-09-26T10:22:33.544Z,88.29
2018-09-26T10:23:33.544Z,85.73
2018-09-26T10:24:33.521Z,85.35
2018-09-26T10:25:33.506Z,84.80
2018-09-26T10:26:33.482Z,82.58
2018-09-26T10:27:33.451Z,83.89
2018-09-26T10:28:33.437Z,84.28
2018-09-26T10:29:33.426Z,84.24
2018-09-26T10:30:33.403Z,84.28
2018-09-26T10:31:33.389Z,84.77
2018-09-26T10:32:33.372Z,85.59
2018-09-26T10:33:33.362Z,86.27
2018-09-26T10:34:33.342Z,85.98
2018-09-26T10:35:33.318Z,85.69
2018-09-26T10:36:33.306Z,86.85
2018-09-26T10:37:33.274Z,86.56
2018-09-26T10:38:33.269Z,85.44
2018-09-26T10:39:33.241Z,82.81
2018-09-26T10:40:33.221Z,80.92
2018-09-26T10:41:33.206Z,80.15
2018-09-26T10:42:33.202Z,80.98
2018-09-26T10:43:33.171Z,81.65
2018-09-26T10:44:33.161Z,82.20
2018-09-26T10:45:33.139Z,82.14
2018-09-26T10:46:33.158Z,81.81
2018-09-26T10:47:33.111Z,81.85
2018-09-26T10:48:33.085Z,82.10
2018-09-26T10:49:33.080Z,81.95
2018-09-26T10:50:33.058Z,81.62
2018-09-26T10:51:33.045Z,82.00
2018-09-26T10:52:33.019Z,82.39
2018-09-26T10:53:33.014Z,81.81
2018-09-26T10:54:32.993Z,82.23
2018-09-26T10:55:32.970Z,81.12
2018-09-26T10:56:33.165Z,80.20
2018-09-26T10:57:32.929Z,81.32
2018-09-26T10:58:32.930Z,82.64
2018-09-26T10:59:32.905Z,83.99
2018-09-26T11:00:32.887Z,83.36
2018-09-26T11:01:32.873Z,82.14
2018-09-26T11:02:32.964Z,81.40
2018-09-26T11:03:32.854Z,79.70
2018-09-26T11:04:32.833Z,78.74
2018-09-26T11:05:32.816Z,78.25
2018-09-26T11:06:32.795Z,78.69
2018-09-26T11:07:32.790Z,79.85
2018-09-26T11:08:32.760Z,80.88
2018-09-26T11:09:32.744Z,80.24
2018-09-26T11:10:32.727Z,78.19
2018-09-26T11:11:32.720Z,76.78
2018-09-26T11:12:32.733Z,75.16
2018-09-26T11:13:32.692Z,75.77
2018-09-26T11:14:32.675Z,77.57
2018-09-26T11:15:32.654Z,78.25
2018-09-26T11:16:32.629Z,79.27
2018-09-26T11:17:32.634Z,79.27
2018-09-26T11:18:32.613Z,80.24
2018-09-26T11:19:32.606Z,79.41
2018-09-26T11:20:32.572Z,78.44
2018-09-26T11:21:32.562Z,78.44
2018-09-26T11:22:32.553Z,78.54
2018-09-26T11:23:32.531Z,77.67
2018-09-26T11:24:32.525Z,78.21
2018-09-26T11:25:32.498Z,79.43
2018-09-26T11:26:32.548Z,80.59
2018-09-26T11:27:32.478Z,80.98
2018-09-26T11:28:32.454Z,82.00
2018-09-26T11:29:32.443Z,81.85
2018-09-26T11:30:32.421Z,80.28
2018-09-26T11:31:32.412Z,79.41
2018-09-26T11:32:32.387Z,78.25
2018-09-26T11:33:32.475Z,78.09
2018-09-26T11:34:32.376Z,77.42
2018-09-26T11:35:32.357Z,77.42
2018-09-26T11:36:32.340Z,76.15
2018-09-26T11:37:32.310Z,76.99
2018-09-26T11:38:32.301Z,78.99
2018-09-26T11:39:32.296Z,80.11
2018-09-26T11:40:32.275Z,79.91
2018-09-26T11:41:32.265Z,80.11
2018-09-26T11:42:32.254Z,79.76
2018-09-26T11:43:32.224Z,79.27
2018-09-26T11:44:32.231Z,78.99
2018-09-26T11:45:32.196Z,78.74
2018-09-26T11:46:32.189Z,78.05
2018-09-26T11:47:32.174Z,76.93
2018-09-26T11:48:32.164Z,76.87
2018-09-26T11:49:32.149Z,77.26
2018-09-26T11:50:32.140Z,75.90
2018-09-26T11:51:32.117Z,76.00
2018-09-26T11:52:32.091Z,75.84
2018-09-26T11:53:32.076Z,74.87
2018-09-26T11:54:32.076Z,74.93
2018-09-26T11:55:32.058Z,75.61
2018-09-26T11:56:32.038Z,75.77
2018-09-26T11:57:32.032Z,78.34
2018-09-26T11:58:32.009Z,77.96
2018-09-26T11:59:32.017Z,78.15
2018-09-26T12:00:31.977Z,78.34
2018-09-26T12:01:31.973Z,77.61
2018-09-26T12:02:32.119Z,75.90
2018-09-26T12:03:31.945Z,75.67
2018-09-26T12:04:32.047Z,76.83
2018-09-26T12:05:31.916Z,76.41
2018-09-26T12:06:31.900Z,77.51
2018-09-26T12:07:31.931Z,76.83
2018-09-26T12:08:31.873Z,77.86
2018-09-26T12:09:31.861Z,77.67
2018-09-26T12:10:31.836Z,77.92
2018-09-26T12:11:31.838Z,78.74
2018-09-26T12:12:31.804Z,78.48
2018-09-26T12:13:31.795Z,77.42
2018-09-26T12:14:31.789Z,76.29
2018-09-26T12:15:31.775Z,75.71
2018-09-26T12:16:31.756Z,75.51
2018-09-26T12:26:10.358Z,75.61
2018-09-26T12:27:10.311Z,75.65
2018-09-26T12:28:10.339Z,73.94
2018-09-26T12:29:10.333Z,72.71
2018-09-26T12:30:10.368Z,70.32
2018-09-26T12:31:10.304Z,69.84
2018-09-26T12:32:10.220Z,69.84
2018-09-26T12:33:10.203Z,70.16
2018-09-26T12:34:10.249Z,68.96
2018-09-26T12:35:10.165Z,69.60
2018-09-26T12:36:10.237Z,70.64
2018-09-26T12:37:10.159Z,71.80
2018-09-26T12:38:10.136Z,71.90
2018-09-26T12:39:10.117Z,71.32
2018-09-26T12:40:10.141Z,70.67
2018-09-26T12:41:10.100Z,70.48
2018-09-26T12:42:10.099Z,70.67
2018-09-26T12:43:10.075Z,69.60
2018-09-26T12:44:10.065Z,69.80
2018-09-26T12:45:10.045Z,70.57
2018-09-26T12:46:10.062Z,69.64
2018-09-26T12:47:10.094Z,67.99
2018-09-26T12:48:10.118Z,68.73
2018-09-26T12:49:10.004Z,69.22
2018-09-26T12:50:09.994Z,69.22
2018-09-26T12:51:09.980Z,68.63
2018-09-26T12:52:10.027Z,68.87
2018-09-26T12:53:09.958Z,68.28
2018-09-26T12:54:09.932Z,67.83
2018-09-26T12:55:09.921Z,66.99
2018-09-26T12:56:09.917Z,65.46
2018-09-26T12:57:09.901Z,64.62
2018-09-26T12:58:09.950Z,65.17
2018-09-26T12:59:09.876Z,64.81
2018-09-26T13:00:09.934Z,64.32
2018-09-26T13:01:09.858Z,64.75